createdAt,value
2023-04-09T05:22:25.921Z,10.10
2023-04-09T05:27:28.270Z,10.00
2023-04-09T05:32:30.620Z,9.90
2023-04-09T05:37:32.538Z,10.00
2023-04-09T05:42:34.400Z,10.00
2023-04-09T05:47:36.277Z,10.00
2023-04-09T05:52:38.118Z,10.10
2023-04-09T05:57:40.000Z,10.00
2023-04-09T06:02:42.041Z,9.90
2023-04-09T06:07:43.981Z,9.80
2023-04-09T06:12:45.980Z,9.60
2023-04-09T06:17:47.965Z,9.60
2023-04-09T06:22:49.897Z,9.50
2023-04-09T06:27:52.461Z,9.40
2023-04-09T06:32:55.497Z,9.30
2023-04-09T06:37:57.566Z,9.30
2023-04-09T06:42:59.596Z,9.20
2023-04-09T06:48:01.881Z,9.20
2023-04-09T06:53:03.910Z,9.20
2023-04-09T06:58:05.831Z,9.10
2023-04-09T07:03:09.358Z,9.10
2023-04-09T07:08:11.870Z,9.10
2023-04-09T07:13:13.748Z,9.10
2023-04-09T07:18:15.802Z,9.10
2023-04-09T07:23:17.656Z,9.20
2023-04-09T07:28:19.527Z,9.30
2023-04-09T07:33:21.554Z,9.30
2023-04-09T07:38:23.438Z,9.40
2023-04-09T07:43:25.345Z,9.40
2023-04-09T07:48:29.458Z,9.50
2023-04-09T07:53:31.481Z,9.60
2023-04-09T07:58:33.425Z,9.70
2023-04-09T08:03:36.827Z,9.70
2023-04-09T08:08:39.022Z,9.90
2023-04-09T08:13:41.124Z,9.90
2023-04-09T08:18:43.121Z,10.00
2023-04-09T08:23:44.988Z,10.10
2023-04-09T08:28:46.910Z,10.20
2023-04-09T08:33:48.736Z,10.40
2023-04-09T08:38:50.754Z,10.50
2023-04-09T08:43:58.120Z,10.60
2023-04-09T08:49:00.453Z,10.70
2023-04-09T08:54:04.709Z,10.90
2023-04-09T08:59:07.186Z,11.10
2023-04-09T09:04:09.708Z,11.40
2023-04-09T09:09:18.430Z,11.50
2023-04-09T09:14:20.522Z,11.70
2023-04-09T09:19:25.311Z,11.90
2023-04-09T09:24:27.648Z,12.10
2023-04-09T09:29:29.585Z,12.20
2023-04-09T09:34:31.455Z,12.30
2023-04-09T09:39:44.454Z,12.50
2023-04-09T09:44:47.477Z,12.70
2023-04-09T09:49:52.457Z,12.80
2023-04-09T09:54:55.921Z,12.90
2023-04-09T10:00:01.867Z,13.20
2023-04-09T10:05:05.930Z,13.40
2023-04-09T10:10:08.954Z,13.70
2023-04-09T10:15:11.121Z,14.00
2023-04-09T10:20:17.828Z,14.30
2023-04-09T10:25:20.854Z,14.40
2023-04-09T10:30:35.687Z,14.60
2023-04-09T10:35:37.835Z,14.70
2023-04-09T10:40:47.834Z,15.00
2023-04-09T10:45:53.656Z,15.30
2023-04-09T10:50:55.730Z,15.60
2023-04-09T10:55:57.786Z,15.80
2023-04-09T11:01:01.714Z,16.30
2023-04-09T11:06:11.781Z,16.80
2023-04-09T11:11:13.891Z,16.90
2023-04-09T11:16:24.274Z,17.10
2023-04-09T11:21:28.708Z,17.40
2023-04-09T11:26:49.268Z,17.60
2023-04-09T11:31:54.627Z,18.00
2023-04-09T11:43:21.228Z,18.80
2023-04-09T11:48:25.343Z,19.40
2023-04-09T11:53:31.566Z,19.10
2023-04-09T11:58:33.741Z,18.90
2023-04-09T12:03:37.683Z,18.60
2023-04-09T12:08:40.229Z,18.30
2023-04-09T12:14:06.414Z,18.50
2023-04-09T12:19:14.299Z,18.10
2023-04-09T12:24:17.344Z,17.90
2023-04-09T12:29:21.331Z,18.10
2023-04-09T12:34:23.286Z,18.60
2023-04-09T12:39:25.273Z,19.30
2023-04-09T12:44:27.781Z,19.70
2023-04-09T12:49:29.675Z,19.30
2023-04-09T12:54:31.549Z,19.20
2023-04-09T12:59:33.538Z,19.80
2023-04-09T13:04:35.579Z,20.00
2023-04-09T13:09:37.611Z,20.20
2023-04-09T13:14:40.199Z,20.20
2023-04-09T13:19:42.907Z,20.00
2023-04-09T13:24:44.910Z,19.90
2023-04-09T13:29:46.805Z,19.60
2023-04-09T13:34:49.327Z,19.20
2023-04-09T13:39:51.488Z,18.80
2023-04-09T13:44:53.855Z,18.50
2023-04-09T13:49:55.882Z,18.30
2023-04-09T13:54:57.732Z,18.00
2023-04-09T14:00:03.734Z,17.90
2023-04-09T14:05:06.287Z,17.80
2023-04-09T14:10:08.659Z,17.80
2023-04-09T14:15:11.170Z,17.80
2023-04-09T14:20:15.732Z,17.70
2023-04-09T14:25:17.762Z,17.50
2023-04-09T14:30:22.565Z,17.50
2023-04-09T14:35:24.668Z,17.50
2023-04-09T14:40:28.668Z,17.40
2023-04-09T14:45:31.063Z,17.20
2023-04-09T14:50:33.984Z,17.40
2023-04-09T14:55:36.255Z,18.10
2023-04-09T15:00:39.038Z,18.50
2023-04-09T15:05:41.078Z,18.70
2023-04-09T15:10:42.943Z,19.20
2023-04-09T15:15:45.030Z,19.60
2023-04-09T15:20:53.918Z,19.80
2023-04-09T15:25:56.095Z,20.20
2023-04-09T15:30:57.916Z,20.40
2023-04-09T15:36:00.170Z,20.70
2023-04-09T15:41:02.029Z,20.70
2023-04-09T15:46:09.193Z,20.40
2023-04-09T15:51:11.333Z,20.00
2023-04-09T15:56:15.415Z,19.50
2023-04-09T16:01:17.572Z,19.00
2023-04-09T16:06:19.775Z,18.80
2023-04-09T16:11:21.579Z,18.80
2023-04-09T16:16:23.534Z,18.80
2023-04-09T16:21:25.961Z,18.70
2023-04-09T16:26:27.844Z,18.50
2023-04-09T16:31:30.112Z,18.40
2023-04-09T16:36:33.512Z,18.40
2023-04-09T16:41:36.933Z,18.30
2023-04-09T16:46:39.044Z,18.20
2023-04-09T16:51:41.158Z,18.10
2023-04-09T16:56:43.191Z,17.90
2023-04-09T17:01:45.415Z,17.70
2023-04-09T17:06:47.667Z,17.50
2023-04-09T17:11:49.784Z,17.40
2023-04-09T17:16:53.833Z,17.20
2023-04-09T17:21:57.108Z,17.00
2023-04-09T17:26:59.269Z,16.90
2023-04-09T17:32:01.205Z,16.80
2023-04-09T17:37:03.780Z,16.60
2023-04-09T17:42:06.484Z,16.50
2023-04-09T17:47:09.054Z,16.30
2023-04-09T17:52:10.943Z,16.20
2023-04-09T17:57:13.022Z,16.00
2023-04-09T18:02:15.012Z,15.80
2023-04-09T18:07:17.375Z,15.60
2023-04-09T18:12:19.375Z,15.50
2023-04-09T18:17:21.427Z,15.40
2023-04-09T18:22:23.933Z,15.30
2023-04-09T18:27:25.844Z,15.20
2023-04-09T18:32:27.854Z,15.10
2023-04-09T18:37:30.012Z,14.90
2023-04-09T18:42:39.777Z,14.80
2023-04-09T18:47:51.495Z,14.80
2023-04-09T18:54:01.576Z,14.60
2023-04-09T18:59:48.825Z,14.50
2023-04-09T19:10:59.924Z,14.30
2023-04-09T20:41:30.316Z,12.90
2023-04-09T20:53:16.582Z,12.70
2023-04-09T21:05:23.839Z,12.60
2023-04-09T21:17:19.571Z,12.40
2023-04-09T21:22:24.854Z,12.40
2023-04-09T21:34:31.574Z,12.30
2023-04-09T21:46:30.861Z,12.10
2023-04-09T22:04:28.448Z,11.90
2023-04-09T22:10:42.278Z,11.80
2023-04-09T22:16:49.982Z,11.70
2023-04-09T22:29:32.734Z,11.60
2023-04-09T22:41:08.378Z,11.50
2023-04-09T22:46:16.440Z,11.40
2023-04-09T22:51:41.774Z,11.40
2023-04-09T22:57:02.279Z,11.40
2023-04-09T23:02:18.510Z,11.30
2023-04-09T23:07:29.719Z,11.30
2023-04-09T23:12:47.971Z,11.30
2023-04-09T23:18:03.671Z,11.20
2023-04-09T23:23:16.309Z,11.10
2023-04-09T23:29:04.276Z,11.10
2023-04-09T23:34:18.279Z,11.10
2023-04-09T23:39:29.032Z,11.00
2023-04-09T23:45:02.364Z,10.90
2023-04-09T23:50:18.385Z,10.90
2023-04-09T23:55:42.481Z,10.80
